This is the latest recevied weather packets stored in our database for station/object OK3MS-5. If no packets are shown the sender has not sent any weather packets the latest 10 day(s).
| Time | Temp. | Humidity | Pressure | Rain* | Wind** | Luminosity | Snow |
|---|---|---|---|---|---|---|---|
| 1777579204 | 5° C | 65% | 1029.3 hPa | 0 mm | - | 0 W/m² | - |
| 1777578910 | 4.44° C | 61% | 1029.3 hPa | 0 mm | - | 0 W/m² | - |
| 1777578602 | 4.44° C | 64% | 1029.4 hPa | 0 mm | - | 0 W/m² | - |
| 1777578309 | 4.44° C | 66% | 1029.3 hPa | 0 mm | - | 0 W/m² | - |
| 1777578005 | 5° C | 68% | 1029.3 hPa | 0 mm | - | 0 W/m² | - |
| 1777577704 | 5.56° C | 64% | 1029.2 hPa | 0 mm | - | 0 W/m² | - |
| 1777577409 | 5.56° C | 63% | 1029 hPa | 0 mm | - | 0 W/m² | - |
| 1777577102 | 5.56° C | 60% | 1029 hPa | 0 mm | - | 0 W/m² | - |
| 1777576811 | 5.56° C | 60% | 1029 hPa | 0 mm | - | 0 W/m² | - |
| 1777576502 | 5.56° C | 62% | 1029 hPa | 0 mm | - | 0 W/m² | - |
| 1777576209 | 5.56° C | 66% | 1028.9 hPa | 0 mm | - | 0 W/m² | - |
| 1777575905 | 5.56° C | 67% | 1029 hPa | 0 mm | - | 0 W/m² | - |
| 1777575609 | 6.11° C | 66% | 1028.8 hPa | 0 mm | - | 0 W/m² | - |
| 1777575306 | 6.11° C | 62% | 1028.9 hPa | 0 mm | - | 0 W/m² | - |
| 1777575008 | 6.67° C | 59% | 1028.8 hPa | 0 mm | - | 0 W/m² | - |
| 1777574703 | 6.67° C | 56% | 1028.6 hPa | 0 mm | - | 0 W/m² | - |
| 1777574405 | 7.22° C | 54% | 1028.5 hPa | 0 mm | - | 0 W/m² | - |
| 1777574110 | 7.78° C | 53% | 1028.3 hPa | 0 mm | - | 0 W/m² | - |
| 1777573802 | 7.78° C | 51% | 1028.3 hPa | 0 mm | - | 0 W/m² | - |
| 1777573509 | 8.33° C | 50% | 1028 hPa | 0 mm | - | 1 W/m² | - |
| 1777573203 | 8.89° C | 48% | 1027.9 hPa | 0 mm | - | 2 W/m² | - |
| 1777572910 | 9.44° C | 45% | 1027.7 hPa | 0 mm | - | 3 W/m² | - |
| 1777572603 | 10° C | 42% | 1027.6 hPa | 0 mm | - | 4 W/m² | - |
| 1777572303 | 10° C | 40% | 1027.6 hPa | 0 mm | - | 6 W/m² | - |
| 1777572003 | 10.56° C | 39% | 1027.4 hPa | 0 mm | - | 8 W/m² | - |
* Rain latest hour (hover to see other rain measurements)
** Current wind speed in m/s (hover to see current wind gust speed)